sensor_id;sensor_type;location;lat;lon;timestamp;temperature;humidity
33655;DHT22;19997;51.274;22.506;2023-02-23T00:01:14;3.00;86.90
33655;DHT22;19997;51.274;22.506;2023-02-23T00:03:43;3.00;87.20
33655;DHT22;19997;51.274;22.506;2023-02-23T00:06:10;3.00;87.40
33655;DHT22;19997;51.274;22.506;2023-02-23T00:08:39;2.90;87.50
33655;DHT22;19997;51.274;22.506;2023-02-23T00:11:10;2.80;87.70
33655;DHT22;19997;51.274;22.506;2023-02-23T00:13:38;2.80;88.20
33655;DHT22;19997;51.274;22.506;2023-02-23T00:16:06;2.70;88.30
33655;DHT22;19997;51.274;22.506;2023-02-23T00:18:34;2.70;88.50
33655;DHT22;19997;51.274;22.506;2023-02-23T00:21:13;2.70;88.60
33655;DHT22;19997;51.274;22.506;2023-02-23T00:23:50;2.70;88.70
33655;DHT22;19997;51.274;22.506;2023-02-23T00:26:17;2.60;88.80
33655;DHT22;19997;51.274;22.506;2023-02-23T00:28:46;2.60;89.00
33655;DHT22;19997;51.274;22.506;2023-02-23T00:31:14;2.60;89.10
33655;DHT22;19997;51.274;22.506;2023-02-23T00:33:41;2.60;89.20
33655;DHT22;19997;51.274;22.506;2023-02-23T00:36:10;2.50;89.10
33655;DHT22;19997;51.274;22.506;2023-02-23T00:38:38;2.50;89.20
33655;DHT22;19997;51.274;22.506;2023-02-23T00:41:09;2.50;89.30
33655;DHT22;19997;51.274;22.506;2023-02-23T00:43:40;2.40;89.40
33655;DHT22;19997;51.274;22.506;2023-02-23T00:46:12;2.40;89.60
33655;DHT22;19997;51.274;22.506;2023-02-23T00:48:43;2.30;89.80
33655;DHT22;19997;51.274;22.506;2023-02-23T00:51:11;2.30;90.00
33655;DHT22;19997;51.274;22.506;2023-02-23T00:53:39;2.30;90.10
33655;DHT22;19997;51.274;22.506;2023-02-23T00:56:12;2.30;90.20
33655;DHT22;19997;51.274;22.506;2023-02-23T00:58:39;2.30;90.20
33655;DHT22;19997;51.274;22.506;2023-02-23T01:01:07;2.20;90.20
33655;DHT22;19997;51.274;22.506;2023-02-23T01:03:36;2.30;90.30
33655;DHT22;19997;51.274;22.506;2023-02-23T01:06:05;2.30;90.40
33655;DHT22;19997;51.274;22.506;2023-02-23T01:08:35;2.30;90.30
33655;DHT22;19997;51.274;22.506;2023-02-23T01:11:05;2.30;90.30
33655;DHT22;19997;51.274;22.506;2023-02-23T01:13:36;2.30;90.40
33655;DHT22;19997;51.274;22.506;2023-02-23T01:16:04;2.30;90.40
33655;DHT22;19997;51.274;22.506;2023-02-23T01:18:32;2.30;90.50
33655;DHT22;19997;51.274;22.506;2023-02-23T01:21:01;2.30;90.50
33655;DHT22;19997;51.274;22.506;2023-02-23T01:23:31;2.30;90.60
33655;DHT22;19997;51.274;22.506;2023-02-23T01:25:58;2.40;90.60
33655;DHT22;19997;51.274;22.506;2023-02-23T01:28:25;2.40;90.70
33655;DHT22;19997;51.274;22.506;2023-02-23T01:30:54;2.40;90.60
33655;DHT22;19997;51.274;22.506;2023-02-23T01:33:21;2.40;90.60
33655;DHT22;19997;51.274;22.506;2023-02-23T01:35:56;2.50;90.60
33655;DHT22;19997;51.274;22.506;2023-02-23T01:38:23;2.40;90.50
33655;DHT22;19997;51.274;22.506;2023-02-23T01:40:51;2.50;90.50
33655;DHT22;19997;51.274;22.506;2023-02-23T01:43:20;2.50;90.30
33655;DHT22;19997;51.274;22.506;2023-02-23T01:46:09;2.50;90.30
33655;DHT22;19997;51.274;22.506;2023-02-23T01:48:38;2.60;90.30
33655;DHT22;19997;51.274;22.506;2023-02-23T01:51:10;2.60;90.20
33655;DHT22;19997;51.274;22.506;2023-02-23T01:53:42;2.60;89.70
33655;DHT22;19997;51.274;22.506;2023-02-23T01:56:15;2.60;88.60
33655;DHT22;19997;51.274;22.506;2023-02-23T01:58:45;2.60;88.20
33655;DHT22;19997;51.274;22.506;2023-02-23T02:01:14;2.60;87.70
33655;DHT22;19997;51.274;22.506;2023-02-23T02:03:45;2.60;87.50
33655;DHT22;19997;51.274;22.506;2023-02-23T02:06:18;2.60;86.90
33655;DHT22;19997;51.274;22.506;2023-02-23T02:08:50;2.60;86.70
33655;DHT22;19997;51.274;22.506;2023-02-23T02:11:21;2.60;86.30
33655;DHT22;19997;51.274;22.506;2023-02-23T02:14:03;2.50;85.50
33655;DHT22;19997;51.274;22.506;2023-02-23T02:17:02;2.40;85.50
33655;DHT22;19997;51.274;22.506;2023-02-23T02:20:02;2.40;85.70
33655;DHT22;19997;51.274;22.506;2023-02-23T02:25:48;2.30;85.60
33655;DHT22;19997;51.274;22.506;2023-02-23T02:28:42;2.30;85.40
33655;DHT22;19997;51.274;22.506;2023-02-23T02:31:55;2.20;85.60
33655;DHT22;19997;51.274;22.506;2023-02-23T02:37:52;2.30;85.40
33655;DHT22;19997;51.274;22.506;2023-02-23T02:40:26;2.30;85.50
33655;DHT22;19997;51.274;22.506;2023-02-23T02:43:00;2.30;85.80
33655;DHT22;19997;51.274;22.506;2023-02-23T02:45:40;2.30;85.50
33655;DHT22;19997;51.274;22.506;2023-02-23T02:48:15;2.30;85.30
33655;DHT22;19997;51.274;22.506;2023-02-23T02:50:48;2.30;85.30
33655;DHT22;19997;51.274;22.506;2023-02-23T02:53:25;2.30;85.30
33655;DHT22;19997;51.274;22.506;2023-02-23T02:55:57;2.30;85.30
33655;DHT22;19997;51.274;22.506;2023-02-23T02:58:26;2.20;85.40
33655;DHT22;19997;51.274;22.506;2023-02-23T03:00:53;2.20;85.60
33655;DHT22;19997;51.274;22.506;2023-02-23T03:03:41;2.20;85.60
33655;DHT22;19997;51.274;22.506;2023-02-23T03:06:29;2.20;85.50
33655;DHT22;19997;51.274;22.506;2023-02-23T03:09:25;2.20;85.40
33655;DHT22;19997;51.274;22.506;2023-02-23T03:12:24;2.20;85.50
33655;DHT22;19997;51.274;22.506;2023-02-23T03:15:21;2.10;85.40
33655;DHT22;19997;51.274;22.506;2023-02-23T03:18:20;2.10;85.50
33655;DHT22;19997;51.274;22.506;2023-02-23T03:21:12;2.00;85.70
33655;DHT22;19997;51.274;22.506;2023-02-23T03:24:08;1.90;85.80
33655;DHT22;19997;51.274;22.506;2023-02-23T03:27:00;1.90;86.00
33655;DHT22;19997;51.274;22.506;2023-02-23T03:29:52;1.80;86.10
33655;DHT22;19997;51.274;22.506;2023-02-23T03:32:45;1.80;86.10
33655;DHT22;19997;51.274;22.506;2023-02-23T03:35:34;1.70;86.10
33655;DHT22;19997;51.274;22.506;2023-02-23T03:38:28;1.60;86.30
33655;DHT22;19997;51.274;22.506;2023-02-23T03:41:18;1.50;86.50
33655;DHT22;19997;51.274;22.506;2023-02-23T03:44:10;1.40;86.70
33655;DHT22;19997;51.274;22.506;2023-02-23T03:46:56;1.30;87.00
33655;DHT22;19997;51.274;22.506;2023-02-23T03:49:42;1.20;87.30
33655;DHT22;19997;51.274;22.506;2023-02-23T03:52:31;1.10;87.50
33655;DHT22;19997;51.274;22.506;2023-02-23T03:55:20;1.10;87.70
33655;DHT22;19997;51.274;22.506;2023-02-23T03:58:12;1.00;88.00
33655;DHT22;19997;51.274;22.506;2023-02-23T04:01:02;0.90;88.40
33655;DHT22;19997;51.274;22.506;2023-02-23T04:03:47;0.90;88.60
33655;DHT22;19997;51.274;22.506;2023-02-23T04:06:36;0.90;89.00
33655;DHT22;19997;51.274;22.506;2023-02-23T04:09:22;0.80;89.20
33655;DHT22;19997;51.274;22.506;2023-02-23T04:12:10;0.80;89.50
33655;DHT22;19997;51.274;22.506;2023-02-23T04:15:03;0.80;89.70
33655;DHT22;19997;51.274;22.506;2023-02-23T04:17:33;0.70;89.90
33655;DHT22;19997;51.274;22.506;2023-02-23T04:20:01;0.70;90.00
33655;DHT22;19997;51.274;22.506;2023-02-23T04:22:28;0.70;90.10
33655;DHT22;19997;51.274;22.506;2023-02-23T04:24:55;0.70;90.10
33655;DHT22;19997;51.274;22.506;2023-02-23T04:27:23;0.70;90.20
33655;DHT22;19997;51.274;22.506;2023-02-23T04:29:50;0.70;90.30
33655;DHT22;19997;51.274;22.506;2023-02-23T04:32:18;0.60;90.40
33655;DHT22;19997;51.274;22.506;2023-02-23T04:34:47;0.60;90.40
33655;DHT22;19997;51.274;22.506;2023-02-23T04:37:14;0.60;90.50
33655;DHT22;19997;51.274;22.506;2023-02-23T04:39:42;0.60;90.50
33655;DHT22;19997;51.274;22.506;2023-02-23T04:42:13;0.60;90.50
33655;DHT22;19997;51.274;22.506;2023-02-23T04:44:40;0.60;90.60
33655;DHT22;19997;51.274;22.506;2023-02-23T04:47:07;0.60;90.70
33655;DHT22;19997;51.274;22.506;2023-02-23T04:49:34;0.60;90.70
33655;DHT22;19997;51.274;22.506;2023-02-23T04:52:03;0.60;90.80
33655;DHT22;19997;51.274;22.506;2023-02-23T04:54:30;0.60;90.90
33655;DHT22;19997;51.274;22.506;2023-02-23T04:56:57;0.70;91.10
33655;DHT22;19997;51.274;22.506;2023-02-23T04:59:24;0.80;91.10
33655;DHT22;19997;51.274;22.506;2023-02-23T05:01:51;0.90;91.10
33655;DHT22;19997;51.274;22.506;2023-02-23T05:04:18;0.90;91.10
33655;DHT22;19997;51.274;22.506;2023-02-23T05:06:45;1.00;91.00
33655;DHT22;19997;51.274;22.506;2023-02-23T05:09:13;1.10;91.00
33655;DHT22;19997;51.274;22.506;2023-02-23T05:11:41;1.20;90.90
33655;DHT22;19997;51.274;22.506;2023-02-23T05:14:08;1.30;90.80
33655;DHT22;19997;51.274;22.506;2023-02-23T05:16:36;1.40;90.80
33655;DHT22;19997;51.274;22.506;2023-02-23T05:19:03;1.40;90.70
33655;DHT22;19997;51.274;22.506;2023-02-23T05:21:30;1.50;90.60
33655;DHT22;19997;51.274;22.506;2023-02-23T05:23:57;1.60;90.50
33655;DHT22;19997;51.274;22.506;2023-02-23T05:26:26;1.60;90.40
33655;DHT22;19997;51.274;22.506;2023-02-23T05:28:53;1.70;90.30
33655;DHT22;19997;51.274;22.506;2023-02-23T05:31:21;1.70;90.20
33655;DHT22;19997;51.274;22.506;2023-02-23T05:33:49;1.80;90.10
33655;DHT22;19997;51.274;22.506;2023-02-23T05:36:19;1.80;89.90
33655;DHT22;19997;51.274;22.506;2023-02-23T05:38:47;1.80;89.70
33655;DHT22;19997;51.274;22.506;2023-02-23T05:41:16;1.80;89.70
33655;DHT22;19997;51.274;22.506;2023-02-23T05:43:45;1.80;89.40
33655;DHT22;19997;51.274;22.506;2023-02-23T05:46:15;1.90;89.50
33655;DHT22;19997;51.274;22.506;2023-02-23T05:48:43;1.90;89.40
33655;DHT22;19997;51.274;22.506;2023-02-23T05:51:12;1.90;89.40
33655;DHT22;19997;51.274;22.506;2023-02-23T05:53:40;2.00;89.30
33655;DHT22;19997;51.274;22.506;2023-02-23T05:56:10;2.00;88.90
33655;DHT22;19997;51.274;22.506;2023-02-23T05:58:38;2.00;88.70
33655;DHT22;19997;51.274;22.506;2023-02-23T06:01:06;2.00;88.60
33655;DHT22;19997;51.274;22.506;2023-02-23T06:03:33;2.10;88.60
33655;DHT22;19997;51.274;22.506;2023-02-23T06:06:00;2.10;88.20
33655;DHT22;19997;51.274;22.506;2023-02-23T06:08:27;2.20;88.50
33655;DHT22;19997;51.274;22.506;2023-02-23T06:10:57;2.30;88.10
33655;DHT22;19997;51.274;22.506;2023-02-23T06:13:24;2.30;87.40
33655;DHT22;19997;51.274;22.506;2023-02-23T06:15:51;2.40;87.40
33655;DHT22;19997;51.274;22.506;2023-02-23T06:18:20;2.40;87.20
33655;DHT22;19997;51.274;22.506;2023-02-23T06:20:47;2.40;86.90
33655;DHT22;19997;51.274;22.506;2023-02-23T06:23:14;2.50;86.90
33655;DHT22;19997;51.274;22.506;2023-02-23T06:25:41;2.50;86.70
33655;DHT22;19997;51.274;22.506;2023-02-23T06:28:08;2.60;86.30
33655;DHT22;19997;51.274;22.506;2023-02-23T06:30:36;2.60;85.80
33655;DHT22;19997;51.274;22.506;2023-02-23T06:33:04;2.70;85.80
33655;DHT22;19997;51.274;22.506;2023-02-23T06:35:35;2.70;85.50
33655;DHT22;19997;51.274;22.506;2023-02-23T06:38:03;2.80;86.00
33655;DHT22;19997;51.274;22.506;2023-02-23T06:40:30;2.80;84.80
33655;DHT22;19997;51.274;22.506;2023-02-23T06:42:57;2.90;84.80
33655;DHT22;19997;51.274;22.506;2023-02-23T06:45:25;2.90;84.40
33655;DHT22;19997;51.274;22.506;2023-02-23T06:47:52;2.90;83.60
33655;DHT22;19997;51.274;22.506;2023-02-23T06:50:19;2.90;83.50
33655;DHT22;19997;51.274;22.506;2023-02-23T06:52:48;3.00;83.30
33655;DHT22;19997;51.274;22.506;2023-02-23T06:55:16;3.10;83.40
33655;DHT22;19997;51.274;22.506;2023-02-23T06:57:43;3.10;82.90
33655;DHT22;19997;51.274;22.506;2023-02-23T07:00:11;3.20;83.00
33655;DHT22;19997;51.274;22.506;2023-02-23T07:02:39;3.30;82.40
33655;DHT22;19997;51.274;22.506;2023-02-23T07:05:07;3.40;81.80
33655;DHT22;19997;51.274;22.506;2023-02-23T07:07:34;3.40;80.80
33655;DHT22;19997;51.274;22.506;2023-02-23T07:10:04;3.40;80.70
33655;DHT22;19997;51.274;22.506;2023-02-23T07:12:31;3.50;80.90
33655;DHT22;19997;51.274;22.506;2023-02-23T07:14:58;3.50;80.30
33655;DHT22;19997;51.274;22.506;2023-02-23T07:17:25;3.50;79.80
33655;DHT22;19997;51.274;22.506;2023-02-23T07:19:52;3.50;79.40
33655;DHT22;19997;51.274;22.506;2023-02-23T07:22:20;3.50;79.00
33655;DHT22;19997;51.274;22.506;2023-02-23T07:24:49;3.60;79.10
33655;DHT22;19997;51.274;22.506;2023-02-23T07:27:18;3.60;78.90
33655;DHT22;19997;51.274;22.506;2023-02-23T07:29:45;3.60;78.20
33655;DHT22;19997;51.274;22.506;2023-02-23T07:32:12;3.70;78.50
33655;DHT22;19997;51.274;22.506;2023-02-23T07:34:39;3.80;78.40
33655;DHT22;19997;51.274;22.506;2023-02-23T07:37:06;3.80;77.70
33655;DHT22;19997;51.274;22.506;2023-02-23T07:39:33;3.90;77.80
33655;DHT22;19997;51.274;22.506;2023-02-23T07:42:00;3.90;77.60
33655;DHT22;19997;51.274;22.506;2023-02-23T07:44:30;4.00;77.40
33655;DHT22;19997;51.274;22.506;2023-02-23T07:46:57;4.10;77.40
33655;DHT22;19997;51.274;22.506;2023-02-23T07:49:24;4.00;76.30
33655;DHT22;19997;51.274;22.506;2023-02-23T07:51:52;4.00;76.20
33655;DHT22;19997;51.274;22.506;2023-02-23T07:54:19;4.00;76.30
33655;DHT22;19997;51.274;22.506;2023-02-23T07:56:46;4.00;76.30
33655;DHT22;19997;51.274;22.506;2023-02-23T07:59:13;4.00;76.30
33655;DHT22;19997;51.274;22.506;2023-02-23T08:01:42;4.00;76.10
33655;DHT22;19997;51.274;22.506;2023-02-23T08:04:09;4.00;75.90
33655;DHT22;19997;51.274;22.506;2023-02-23T08:06:36;3.90;76.00
33655;DHT22;19997;51.274;22.506;2023-02-23T08:09:06;3.80;76.10
33655;DHT22;19997;51.274;22.506;2023-02-23T08:11:33;3.80;76.40
33655;DHT22;19997;51.274;22.506;2023-02-23T08:14:00;3.70;76.50
33655;DHT22;19997;51.274;22.506;2023-02-23T08:16:29;3.70;76.30
33655;DHT22;19997;51.274;22.506;2023-02-23T08:18:58;3.80;76.30
33655;DHT22;19997;51.274;22.506;2023-02-23T08:21:26;3.80;76.30
33655;DHT22;19997;51.274;22.506;2023-02-23T08:23:54;3.90;76.60
33655;DHT22;19997;51.274;22.506;2023-02-23T08:26:21;4.00;76.10
33655;DHT22;19997;51.274;22.506;2023-02-23T08:28:48;4.10;75.90
33655;DHT22;19997;51.274;22.506;2023-02-23T08:31:16;4.10;76.10
33655;DHT22;19997;51.274;22.506;2023-02-23T08:33:45;4.20;75.80
33655;DHT22;19997;51.274;22.506;2023-02-23T08:36:14;4.30;75.40
33655;DHT22;19997;51.274;22.506;2023-02-23T08:38:41;4.30;75.50
33655;DHT22;19997;51.274;22.506;2023-02-23T08:41:08;4.40;75.60
33655;DHT22;19997;51.274;22.506;2023-02-23T08:43:35;4.40;75.30
33655;DHT22;19997;51.274;22.506;2023-02-23T08:46:04;4.40;75.30
33655;DHT22;19997;51.274;22.506;2023-02-23T08:48:32;4.40;75.10
33655;DHT22;19997;51.274;22.506;2023-02-23T08:51:00;4.40;75.10
33655;DHT22;19997;51.274;22.506;2023-02-23T08:53:28;4.40;75.20
33655;DHT22;19997;51.274;22.506;2023-02-23T08:55:56;4.40;75.00
33655;DHT22;19997;51.274;22.506;2023-02-23T08:58:23;4.40;74.90
33655;DHT22;19997;51.274;22.506;2023-02-23T09:00:50;4.40;75.00
33655;DHT22;19997;51.274;22.506;2023-02-23T09:03:18;4.50;74.80
33655;DHT22;19997;51.274;22.506;2023-02-23T09:05:45;4.50;74.60
33655;DHT22;19997;51.274;22.506;2023-02-23T09:08:13;4.60;74.60
33655;DHT22;19997;51.274;22.506;2023-02-23T09:10:42;4.60;74.20
33655;DHT22;19997;51.274;22.506;2023-02-23T09:13:09;4.60;74.20
33655;DHT22;19997;51.274;22.506;2023-02-23T09:15:37;4.60;74.20
33655;DHT22;19997;51.274;22.506;2023-02-23T09:18:05;4.50;74.00
33655;DHT22;19997;51.274;22.506;2023-02-23T09:20:32;4.50;73.60
33655;DHT22;19997;51.274;22.506;2023-02-23T09:23:00;4.60;73.60
33655;DHT22;19997;51.274;22.506;2023-02-23T09:25:27;4.60;73.80
33655;DHT22;19997;51.274;22.506;2023-02-23T09:27:57;4.70;73.50
33655;DHT22;19997;51.274;22.506;2023-02-23T09:30:25;4.70;73.50
33655;DHT22;19997;51.274;22.506;2023-02-23T09:32:54;4.80;73.50
33655;DHT22;19997;51.274;22.506;2023-02-23T09:35:23;4.80;73.20
33655;DHT22;19997;51.274;22.506;2023-02-23T09:37:52;4.90;73.00
33655;DHT22;19997;51.274;22.506;2023-02-23T09:40:23;4.90;72.80
33655;DHT22;19997;51.274;22.506;2023-02-23T09:43:09;5.00;72.90
33655;DHT22;19997;51.274;22.506;2023-02-23T09:45:41;5.00;72.80
33655;DHT22;19997;51.274;22.506;2023-02-23T09:48:12;5.00;72.60
33655;DHT22;19997;51.274;22.506;2023-02-23T09:50:44;5.10;72.60
33655;DHT22;19997;51.274;22.506;2023-02-23T09:53:29;5.10;72.40
33655;DHT22;19997;51.274;22.506;2023-02-23T09:55:58;5.10;72.20
33655;DHT22;19997;51.274;22.506;2023-02-23T09:58:28;5.10;72.10
33655;DHT22;19997;51.274;22.506;2023-02-23T10:01:26;5.10;72.30
33655;DHT22;19997;51.274;22.506;2023-02-23T10:04:00;5.20;72.30
33655;DHT22;19997;51.274;22.506;2023-02-23T10:06:32;5.30;72.00
33655;DHT22;19997;51.274;22.506;2023-02-23T10:09:09;5.40;72.40
33655;DHT22;19997;51.274;22.506;2023-02-23T10:11:43;5.50;72.50
33655;DHT22;19997;51.274;22.506;2023-02-23T10:17:10;5.60;71.80
33655;DHT22;19997;51.274;22.506;2023-02-23T10:19:48;5.70;71.90
33655;DHT22;19997;51.274;22.506;2023-02-23T10:22:17;5.80;71.90
33655;DHT22;19997;51.274;22.506;2023-02-23T10:24:51;5.80;71.70
33655;DHT22;19997;51.274;22.506;2023-02-23T10:27:21;5.90;71.20
33655;DHT22;19997;51.274;22.506;2023-02-23T10:29:51;5.90;71.10
33655;DHT22;19997;51.274;22.506;2023-02-23T10:32:23;5.90;71.10
33655;DHT22;19997;51.274;22.506;2023-02-23T10:34:53;6.00;71.00
33655;DHT22;19997;51.274;22.506;2023-02-23T10:37:21;6.00;71.10
33655;DHT22;19997;51.274;22.506;2023-02-23T10:39:49;6.10;71.10
33655;DHT22;19997;51.274;22.506;2023-02-23T10:42:20;6.10;71.20
33655;DHT22;19997;51.274;22.506;2023-02-23T10:44:48;6.10;71.00
33655;DHT22;19997;51.274;22.506;2023-02-23T10:47:19;6.20;71.00
33655;DHT22;19997;51.274;22.506;2023-02-23T10:49:49;6.20;71.10
33655;DHT22;19997;51.274;22.506;2023-02-23T10:52:20;6.20;71.00
33655;DHT22;19997;51.274;22.506;2023-02-23T10:54:49;6.30;71.00
33655;DHT22;19997;51.274;22.506;2023-02-23T10:57:23;6.30;70.80
33655;DHT22;19997;51.274;22.506;2023-02-23T11:00:00;6.30;71.00
33655;DHT22;19997;51.274;22.506;2023-02-23T11:02:29;6.30;71.20
33655;DHT22;19997;51.274;22.506;2023-02-23T11:04:58;6.40;71.00
33655;DHT22;19997;51.274;22.506;2023-02-23T11:07:28;6.40;70.70
33655;DHT22;19997;51.274;22.506;2023-02-23T11:09:56;6.40;70.60
33655;DHT22;19997;51.274;22.506;2023-02-23T11:12:25;6.40;70.50
33655;DHT22;19997;51.274;22.506;2023-02-23T11:14:55;6.40;70.20
33655;DHT22;19997;51.274;22.506;2023-02-23T11:17:26;6.40;70.40
33655;DHT22;19997;51.274;22.506;2023-02-23T11:20:00;6.40;70.40
33655;DHT22;19997;51.274;22.506;2023-02-23T11:22:31;6.50;70.70
33655;DHT22;19997;51.274;22.506;2023-02-23T11:25:01;6.50;70.60
33655;DHT22;19997;51.274;22.506;2023-02-23T11:27:31;6.50;70.30
33655;DHT22;19997;51.274;22.506;2023-02-23T11:30:03;6.60;70.50
33655;DHT22;19997;51.274;22.506;2023-02-23T11:32:33;6.60;70.80
33655;DHT22;19997;51.274;22.506;2023-02-23T11:35:29;6.70;70.90
33655;DHT22;19997;51.274;22.506;2023-02-23T11:37:57;6.80;70.70
33655;DHT22;19997;51.274;22.506;2023-02-23T11:40:26;6.90;70.50
33655;DHT22;19997;51.274;22.506;2023-02-23T11:42:55;7.00;70.20
33655;DHT22;19997;51.274;22.506;2023-02-23T11:45:24;7.00;70.10
33655;DHT22;19997;51.274;22.506;2023-02-23T11:47:54;7.00;70.20
33655;DHT22;19997;51.274;22.506;2023-02-23T11:50:26;7.10;70.10
33655;DHT22;19997;51.274;22.506;2023-02-23T11:53:03;7.10;70.10
33655;DHT22;19997;51.274;22.506;2023-02-23T11:55:32;7.10;70.00
33655;DHT22;19997;51.274;22.506;2023-02-23T11:58:20;7.10;70.00
33655;DHT22;19997;51.274;22.506;2023-02-23T12:00:56;7.10;70.10
33655;DHT22;19997;51.274;22.506;2023-02-23T12:03:26;7.20;70.20
33655;DHT22;19997;51.274;22.506;2023-02-23T12:05:56;7.20;70.50
33655;DHT22;19997;51.274;22.506;2023-02-23T12:08:34;7.20;70.70
33655;DHT22;19997;51.274;22.506;2023-02-23T12:11:06;7.20;70.70
33655;DHT22;19997;51.274;22.506;2023-02-23T12:13:37;7.20;70.70
33655;DHT22;19997;51.274;22.506;2023-02-23T12:16:10;7.30;70.90
33655;DHT22;19997;51.274;22.506;2023-02-23T12:18:44;7.30;70.80
33655;DHT22;19997;51.274;22.506;2023-02-23T12:21:32;7.40;70.90
33655;DHT22;19997;51.274;22.506;2023-02-23T12:24:22;7.30;70.80
33655;DHT22;19997;51.274;22.506;2023-02-23T12:26:54;7.30;71.00
33655;DHT22;19997;51.274;22.506;2023-02-23T12:29:30;7.30;71.10
33655;DHT22;19997;51.274;22.506;2023-02-23T12:31:59;7.30;71.50
33655;DHT22;19997;51.274;22.506;2023-02-23T12:34:34;7.30;71.50
33655;DHT22;19997;51.274;22.506;2023-02-23T12:37:13;7.30;71.60
33655;DHT22;19997;51.274;22.506;2023-02-23T12:39:48;7.40;71.60
33655;DHT22;19997;51.274;22.506;2023-02-23T12:42:23;7.40;71.30
33655;DHT22;19997;51.274;22.506;2023-02-23T12:44:53;7.40;71.60
33655;DHT22;19997;51.274;22.506;2023-02-23T12:47:31;7.30;71.70
33655;DHT22;19997;51.274;22.506;2023-02-23T12:50:02;7.40;71.60
33655;DHT22;19997;51.274;22.506;2023-02-23T12:52:59;7.40;71.70
33655;DHT22;19997;51.274;22.506;2023-02-23T12:55:40;7.40;71.60
33655;DHT22;19997;51.274;22.506;2023-02-23T12:58:19;7.40;71.60
33655;DHT22;19997;51.274;22.506;2023-02-23T13:00:55;7.40;71.80
33655;DHT22;19997;51.274;22.506;2023-02-23T13:06:32;7.40;72.20
33655;DHT22;19997;51.274;22.506;2023-02-23T13:09:12;7.50;72.20
33655;DHT22;19997;51.274;22.506;2023-02-23T13:12:02;7.50;72.30
33655;DHT22;19997;51.274;22.506;2023-02-23T13:14:37;7.60;72.20
33655;DHT22;19997;51.274;22.506;2023-02-23T13:17:18;7.60;72.10
33655;DHT22;19997;51.274;22.506;2023-02-23T13:19:51;7.70;71.90
33655;DHT22;19997;51.274;22.506;2023-02-23T13:22:27;7.70;71.90
33655;DHT22;19997;51.274;22.506;2023-02-23T13:24:59;7.80;71.80
33655;DHT22;19997;51.274;22.506;2023-02-23T13:27:34;7.80;71.80
33655;DHT22;19997;51.274;22.506;2023-02-23T13:30:03;7.80;71.70
33655;DHT22;19997;51.274;22.506;2023-02-23T13:32:32;7.80;71.60
33655;DHT22;19997;51.274;22.506;2023-02-23T13:35:01;7.80;71.90
33655;DHT22;19997;51.274;22.506;2023-02-23T13:37:39;7.80;71.70
33655;DHT22;19997;51.274;22.506;2023-02-23T13:40:19;7.90;71.60
33655;DHT22;19997;51.274;22.506;2023-02-23T13:42:58;7.80;71.30
33655;DHT22;19997;51.274;22.506;2023-02-23T13:45:42;7.80;71.60
33655;DHT22;19997;51.274;22.506;2023-02-23T13:48:23;7.70;71.60
33655;DHT22;19997;51.274;22.506;2023-02-23T13:50:56;7.70;71.80
33655;DHT22;19997;51.274;22.506;2023-02-23T13:53:47;7.70;72.10
33655;DHT22;19997;51.274;22.506;2023-02-23T13:56:26;7.70;71.90
33655;DHT22;19997;51.274;22.506;2023-02-23T13:58:57;7.60;71.60
33655;DHT22;19997;51.274;22.506;2023-02-23T14:01:29;7.60;71.90
33655;DHT22;19997;51.274;22.506;2023-02-23T14:03:59;7.60;71.80
33655;DHT22;19997;51.274;22.506;2023-02-23T14:06:27;7.50;72.80
33655;DHT22;19997;51.274;22.506;2023-02-23T14:08:57;7.50;72.20
33655;DHT22;19997;51.274;22.506;2023-02-23T14:11:26;7.50;72.10
33655;DHT22;19997;51.274;22.506;2023-02-23T14:14:01;7.50;72.20
33655;DHT22;19997;51.274;22.506;2023-02-23T14:16:28;7.40;72.20
33655;DHT22;19997;51.274;22.506;2023-02-23T14:19:11;7.40;72.40
33655;DHT22;19997;51.274;22.506;2023-02-23T14:21:47;7.30;72.50
33655;DHT22;19997;51.274;22.506;2023-02-23T14:24:18;7.30;72.80
33655;DHT22;19997;51.274;22.506;2023-02-23T14:30:16;7.10;73.20
33655;DHT22;19997;51.274;22.506;2023-02-23T14:32:47;7.10;73.30
33655;DHT22;19997;51.274;22.506;2023-02-23T14:35:41;7.00;73.60
33655;DHT22;19997;51.274;22.506;2023-02-23T14:38:26;7.00;73.80
33655;DHT22;19997;51.274;22.506;2023-02-23T14:40:55;7.00;73.80
33655;DHT22;19997;51.274;22.506;2023-02-23T14:43:43;6.90;73.90
33655;DHT22;19997;51.274;22.506;2023-02-23T14:46:17;6.90;73.80
33655;DHT22;19997;51.274;22.506;2023-02-23T14:48:56;6.90;73.70
33655;DHT22;19997;51.274;22.506;2023-02-23T14:51:35;6.80;73.70
33655;DHT22;19997;51.274;22.506;2023-02-23T14:54:22;6.80;73.80
33655;DHT22;19997;51.274;22.506;2023-02-23T14:56:51;6.80;73.80
33655;DHT22;19997;51.274;22.506;2023-02-23T14:59:20;6.80;73.80
33655;DHT22;19997;51.274;22.506;2023-02-23T15:01:50;6.80;73.80
33655;DHT22;19997;51.274;22.506;2023-02-23T15:04:19;6.80;73.90
33655;DHT22;19997;51.274;22.506;2023-02-23T15:06:47;6.80;73.90
33655;DHT22;19997;51.274;22.506;2023-02-23T15:09:18;6.80;73.90
33655;DHT22;19997;51.274;22.506;2023-02-23T15:11:48;6.80;74.10
33655;DHT22;19997;51.274;22.506;2023-02-23T15:14:19;6.80;74.10
33655;DHT22;19997;51.274;22.506;2023-02-23T15:16:49;6.80;74.20
33655;DHT22;19997;51.274;22.506;2023-02-23T15:19:18;6.80;74.20
33655;DHT22;19997;51.274;22.506;2023-02-23T15:21:50;6.70;74.20
33655;DHT22;19997;51.274;22.506;2023-02-23T15:24:21;6.60;74.40
33655;DHT22;19997;51.274;22.506;2023-02-23T15:26:50;6.60;74.50
33655;DHT22;19997;51.274;22.506;2023-02-23T15:29:19;6.50;74.70
33655;DHT22;19997;51.274;22.506;2023-02-23T15:31:51;6.40;74.80
33655;DHT22;19997;51.274;22.506;2023-02-23T15:34:20;6.40;75.00
33655;DHT22;19997;51.274;22.506;2023-02-23T15:36:53;6.30;75.10
33655;DHT22;19997;51.274;22.506;2023-02-23T15:39:30;6.20;75.30
33655;DHT22;19997;51.274;22.506;2023-02-23T15:42:00;6.20;75.40
33655;DHT22;19997;51.274;22.506;2023-02-23T15:44:28;6.10;75.60
33655;DHT22;19997;51.274;22.506;2023-02-23T15:47:02;6.10;75.80
33655;DHT22;19997;51.274;22.506;2023-02-23T15:49:31;6.00;75.90
33655;DHT22;19997;51.274;22.506;2023-02-23T15:52:00;5.90;76.10
33655;DHT22;19997;51.274;22.506;2023-02-23T15:54:32;5.90;76.30
33655;DHT22;19997;51.274;22.506;2023-02-23T15:57:03;5.80;76.40
33655;DHT22;19997;51.274;22.506;2023-02-23T15:59:34;5.70;76.70
33655;DHT22;19997;51.274;22.506;2023-02-23T16:02:13;5.70;77.10
33655;DHT22;19997;51.274;22.506;2023-02-23T16:04:42;5.60;77.20
33655;DHT22;19997;51.274;22.506;2023-02-23T16:07:18;5.60;77.40
33655;DHT22;19997;51.274;22.506;2023-02-23T16:09:51;5.50;77.60
33655;DHT22;19997;51.274;22.506;2023-02-23T16:12:20;5.40;77.90
33655;DHT22;19997;51.274;22.506;2023-02-23T16:14:49;5.40;78.00
33655;DHT22;19997;51.274;22.506;2023-02-23T16:17:25;5.30;78.10
33655;DHT22;19997;51.274;22.506;2023-02-23T16:19:55;5.30;78.00